Terminal Aerodrome Forecast
Issued by NWS Milwaukee/Sullivan, WI

Home | Current Version | Previous Version | Text Only | Print | Product List | Glossary On
Versions: 1 2 3 4 5 6 7 8 9 10 11 12 13 14 15 16 17 18 19 20 21 22 23 24 25 26 27
000
FTUS43 KMKX 010520
TAFMSN
TAF
KMSN 010520Z 0106/0206 15006KT 5SM -SHRA VCTS OVC060CB
      TEMPO 0106/0108 3SM -TSRA BKN040CB OVC060
     FM010800 VRB03KT P6SM -SHRA VCTS OVC030CB
     FM011400 24005KT P6SM VCSH SCT040 BKN080
     FM011900 24008KT P6SM BKN250
     FM020100 27006KT P6SM FEW250=

USA.gov is the U.S. government's official web portal to all federal, state and local government web resources and services.